Time;durP1;ratioP1;P1;durP2;ratioP2;P2;SDS_P1;SDS_P2;PMS_P1;PMS_P2;Temp;Humidity;BMP_temperature;BMP_pressure;BME280_temperature;BME280_humidity;BME280_pressure;Samples;Min_cycle;Max_cycle;Signal;HPM_P1;HPM_P2
2021/03/01 00:00:58;;;;;;;17.97;7.97;;;;;;;-0.21;100.00;97662.91;4979059;28;20199;-73
2021/03/01 00:03:24;;;;;;;20.17;8.97;;;;;;;-0.22;100.00;97658.66;4980000;28;20256;-72
2021/03/01 00:05:51;;;;;;;19.53;8.27;;;;;;;-0.20;100.00;97662.00;4979144;28;20671;-72
2021/03/01 00:08:17;;;;;;;18.97;8.33;;;;;;;-0.18;100.00;97659.34;4979975;28;20801;-73
2021/03/01 00:10:43;;;;;;;19.20;8.20;;;;;;;-0.16;100.00;97658.34;4980078;28;20238;-72
2021/03/01 00:13:09;;;;;;;17.03;8.47;;;;;;;-0.15;100.00;97669.53;4979474;28;20667;-72
2021/03/01 00:15:35;;;;;;;17.67;7.77;;;;;;;-0.12;100.00;97659.03;4979062;28;20555;-72
2021/03/01 00:18:01;;;;;;;19.40;8.50;;;;;;;-0.06;100.00;97661.28;4979679;28;21418;-72
2021/03/01 00:20:27;;;;;;;18.23;8.43;;;;;;;-0.13;100.00;97663.34;4979123;28;21144;-73
2021/03/01 00:22:53;;;;;;;18.87;8.23;;;;;;;-0.20;100.00;97661.19;4980028;28;20215;-73
2021/03/01 00:25:19;;;;;;;17.43;8.23;;;;;;;-0.32;100.00;97665.22;4978990;28;20271;-72
2021/03/01 00:27:45;;;;;;;17.93;8.10;;;;;;;-0.19;100.00;97655.06;4979357;28;20203;-72
2021/03/01 00:30:13;;;;;;;17.67;7.47;;;;;;;-0.28;100.00;97655.53;4979756;28;20214;-72
2021/03/01 00:32:39;;;;;;;17.20;7.33;;;;;;;-0.29;100.00;97669.41;4979766;28;20232;-72
2021/03/01 00:35:07;;;;;;;17.63;7.77;;;;;;;-0.29;100.00;97656.47;4978156;28;20226;-72
2021/03/01 00:37:33;;;;;;;22.10;8.07;;;;;;;-0.31;100.00;97661.69;4979661;28;20345;-72
2021/03/01 00:39:59;;;;;;;20.60;8.23;;;;;;;-0.35;100.00;97661.94;4980352;28;20238;-72
2021/03/01 00:42:25;;;;;;;18.50;8.40;;;;;;;-0.59;100.00;97661.44;4986698;28;20222;-72
2021/03/01 00:44:51;;;;;;;16.53;7.43;;;;;;;-0.47;100.00;97670.31;4979076;28;20203;-72
2021/03/01 00:47:18;;;;;;;15.77;7.10;;;;;;;-0.51;100.00;97668.78;4979016;28;20214;-72
2021/03/01 00:49:44;;;;;;;15.97;7.77;;;;;;;-0.55;100.00;97677.63;4979650;28;20207;-72
2021/03/01 00:52:11;;;;;;;23.20;8.30;;;;;;;-0.60;100.00;97666.66;4978957;28;20239;-72
2021/03/01 00:54:37;;;;;;;16.03;7.27;;;;;;;-0.68;100.00;97670.56;4979219;28;20203;-72
2021/03/01 00:57:04;;;;;;;19.77;7.77;;;;;;;-0.64;100.00;97670.31;4978856;28;20218;-72
2021/03/01 00:59:30;;;;;;;15.03;7.70;;;;;;;-0.64;100.00;97669.50;4979396;28;20210;-72
2021/03/01 01:01:56;;;;;;;20.03;8.03;;;;;;;-0.63;100.00;97666.81;4978696;28;20297;-72
2021/03/01 01:04:22;;;;;;;18.23;7.57;;;;;;;-0.70;100.00;97668.03;4979295;28;20215;-72
2021/03/01 01:06:48;;;;;;;18.03;7.63;;;;;;;-0.65;100.00;97672.97;4977493;28;20207;-72
2021/03/01 01:09:14;;;;;;;15.67;7.50;;;;;;;-0.63;100.00;97671.16;4981116;28;20214;-72
2021/03/01 01:11:40;;;;;;;17.57;8.17;;;;;;;-0.59;100.00;97670.94;4978305;28;20231;-72
2021/03/01 01:14:07;;;;;;;17.10;7.93;;;;;;;-0.69;100.00;97669.69;4978538;28;20349;-72
2021/03/01 01:16:33;;;;;;;20.73;8.60;;;;;;;-0.69;100.00;97674.88;4977851;28;20210;-72
2021/03/01 01:19:00;;;;;;;16.70;7.20;;;;;;;-0.64;100.00;97662.53;4983434;28;20209;-72
2021/03/01 01:21:26;;;;;;;18.70;8.20;;;;;;;-0.65;100.00;97667.81;4987068;28;20207;-72
2021/03/01 01:23:51;;;;;;;17.57;7.90;;;;;;;-0.78;100.00;97666.72;4978294;28;20305;-72
2021/03/01 01:26:17;;;;;;;15.03;7.73;;;;;;;-0.69;100.00;97666.28;4977836;28;20218;-72
2021/03/01 01:28:43;;;;;;;16.77;7.37;;;;;;;-0.72;100.00;97667.28;4978835;28;20203;-72
2021/03/01 01:31:10;;;;;;;18.47;8.07;;;;;;;-0.81;100.00;97662.53;4978569;28;20230;-72
2021/03/01 01:33:36;;;;;;;20.33;8.43;;;;;;;-0.80;100.00;97668.53;4978501;28;20690;-72
2021/03/01 01:36:02;;;;;;;18.70;7.90;;;;;;;-0.94;100.00;97663.19;4977615;28;20253;-72
2021/03/01 01:38:28;;;;;;;16.67;7.40;;;;;;;-0.87;100.00;97662.81;4978363;28;20215;-72
2021/03/01 01:40:54;;;;;;;16.67;7.90;;;;;;;-0.82;100.00;97663.44;4978691;28;20207;-72
2021/03/01 01:43:20;;;;;;;19.60;8.53;;;;;;;-0.73;100.00;97652.66;4982779;28;20931;-72
2021/03/01 01:45:46;;;;;;;22.70;8.53;;;;;;;-0.76;100.00;97657.13;4977845;28;20203;-72
2021/03/01 01:48:13;;;;;;;22.73;8.23;;;;;;;-0.78;100.00;97657.22;4978022;28;20238;-72
2021/03/01 01:50:39;;;;;;;19.10;8.63;;;;;;;-0.76;100.00;97652.81;4979042;28;20206;-72
2021/03/01 01:53:05;;;;;;;19.57;8.87;;;;;;;-0.85;100.00;97655.84;4977888;28;20242;-72
2021/03/01 01:55:31;;;;;;;19.47;8.57;;;;;;;-0.85;100.00;97649.81;4977149;28;20204;-72
2021/03/01 01:57:58;;;;;;;19.50;8.20;;;;;;;-0.79;100.00;97647.78;4978767;28;20204;-72
2021/03/01 02:00:37;;;;;;;21.73;8.77;;;;;;;-0.72;100.00;97646.56;4978387;28;20575;-72
2021/03/01 02:03:10;;;;;;;19.33;8.17;;;;;;;-0.78;100.00;97651.19;4978047;28;20303;-72
2021/03/01 02:05:39;;;;;;;19.73;8.43;;;;;;;-0.77;100.00;97647.72;4985626;28;20203;-72
2021/03/01 02:08:11;;;;;;;18.63;8.10;;;;;;;-0.91;100.00;97645.78;4977753;28;20294;-72
2021/03/01 02:10:46;;;;;;;19.67;8.07;;;;;;;-0.83;100.00;97642.81;4978777;28;20203;-72
2021/03/01 02:13:21;;;;;;;16.83;7.67;;;;;;;-0.85;100.00;97635.13;4977644;28;20230;-72
2021/03/01 02:15:51;;;;;;;19.90;8.17;;;;;;;-1.04;100.00;97647.28;4977763;28;20214;-72
2021/03/01 02:18:17;;;;;;;19.03;8.10;;;;;;;-1.02;100.00;97648.06;4979009;28;20215;-72
2021/03/01 02:20:45;;;;;;;22.53;8.60;;;;;;;-1.02;100.00;97648.06;4980888;28;20201;-72
2021/03/01 02:23:13;;;;;;;16.27;8.10;;;;;;;-0.99;100.00;97645.31;4978456;28;20226;-72
2021/03/01 02:25:43;;;;;;;20.40;7.80;;;;;;;-0.94;100.00;97645.94;4987928;28;20203;-72
2021/03/01 02:28:13;;;;;;;19.53;8.13;;;;;;;-0.95;100.00;97641.66;4981582;28;20207;-72
2021/03/01 02:30:43;;;;;;;19.77;8.83;;;;;;;-1.08;100.00;97648.34;4983889;28;20199;-72
2021/03/01 02:33:14;;;;;;;20.80;8.30;;;;;;;-1.11;100.00;97648.50;4981303;28;21395;-72
2021/03/01 02:35:44;;;;;;;21.97;8.67;;;;;;;-1.03;100.00;97640.34;4981241;28;20214;-72
2021/03/01 02:38:12;;;;;;;19.87;8.30;;;;;;;-1.07;100.00;97644.84;4981873;28;20203;-72
2021/03/01 02:40:41;;;;;;;18.50;8.43;;;;;;;-1.01;100.00;97641.97;4981649;28;20218;-72
2021/03/01 02:43:07;;;;;;;21.13;8.83;;;;;;;-0.99;100.00;97642.72;4981764;28;20233;-72
2021/03/01 02:45:34;;;;;;;22.23;8.67;;;;;;;-1.15;100.00;97646.94;4980956;28;20207;-72
2021/03/01 02:48:02;;;;;;;21.23;8.77;;;;;;;-1.14;100.00;97647.81;4981985;28;20207;-72
2021/03/01 02:50:29;;;;;;;23.60;9.87;;;;;;;-1.15;100.00;97638.38;4989097;28;20469;-72
2021/03/01 02:52:56;;;;;;;25.77;9.20;;;;;;;-1.10;100.00;97634.63;4981990;28;20282;-71
2021/03/01 02:55:24;;;;;;;21.87;9.37;;;;;;;-1.07;100.00;97629.34;4980484;28;20203;-72
2021/03/01 02:57:51;;;;;;;20.17;8.73;;;;;;;-1.05;100.00;97635.25;4980719;28;20229;-72
2021/03/01 03:00:18;;;;;;;18.47;8.27;;;;;;;-1.16;100.00;97632.38;4983096;28;20206;-72
2021/03/01 03:02:46;;;;;;;18.63;8.30;;;;;;;-1.16;100.00;97629.78;4981656;28;20247;-72
2021/03/01 03:05:13;;;;;;;18.27;8.27;;;;;;;-1.37;100.00;97623.94;4979609;28;20235;-72
2021/03/01 03:07:42;;;;;;;16.70;7.60;;;;;;;-1.49;100.00;97625.38;4981781;28;20206;-72
2021/03/01 03:10:09;;;;;;;16.93;8.10;;;;;;;-1.50;100.00;97630.56;4981239;28;20282;-72
2021/03/01 03:12:39;;;;;;;18.70;8.20;;;;;;;-1.52;100.00;97627.25;4985622;28;20281;-72
2021/03/01 03:15:08;;;;;;;20.30;8.67;;;;;;;-1.53;100.00;97623.78;4983306;28;20211;-71
2021/03/01 03:17:35;;;;;;;17.77;8.47;;;;;;;-1.58;100.00;97630.09;4981467;28;20257;-72
2021/03/01 03:20:01;;;;;;;20.87;8.40;;;;;;;-1.64;100.00;97628.66;4980419;28;20568;-72
2021/03/01 03:22:27;;;;;;;21.60;8.80;;;;;;;-1.63;100.00;97616.53;4980889;28;20222;-72
2021/03/01 03:24:53;;;;;;;17.83;8.17;;;;;;;-1.72;100.00;97625.56;4980616;28;20215;-71
2021/03/01 03:27:19;;;;;;;20.13;8.80;;;;;;;-1.57;100.00;97619.69;4981319;28;20207;-71
2021/03/01 03:29:46;;;;;;;21.77;8.83;;;;;;;-1.58;100.00;97617.19;4986560;28;20199;-71
2021/03/01 03:32:12;;;;;;;20.10;8.97;;;;;;;-1.51;100.00;97619.41;4980871;28;20801;-72
2021/03/01 03:34:39;;;;;;;19.50;8.30;;;;;;;-1.35;100.00;97622.13;4980304;28;20214;-72
2021/03/01 03:37:07;;;;;;;20.57;9.23;;;;;;;-1.34;100.00;97616.03;4979702;28;20207;-71
2021/03/01 03:39:36;;;;;;;18.77;8.87;;;;;;;-1.36;100.00;97623.00;4983418;28;20207;-72
2021/03/01 03:42:04;;;;;;;20.00;8.50;;;;;;;-1.31;100.00;97618.47;4980091;28;20227;-72
2021/03/01 03:44:32;;;;;;;21.00;8.50;;;;;;;-1.45;100.00;97618.28;4981059;28;20585;-72
2021/03/01 03:47:00;;;;;;;19.30;8.90;;;;;;;-1.40;100.00;97608.56;4979261;28;20218;-72
2021/03/01 03:49:29;;;;;;;21.77;9.00;;;;;;;-1.34;100.00;97613.47;4980895;28;20203;-72
2021/03/01 03:51:58;;;;;;;17.47;8.13;;;;;;;-1.55;100.00;97620.47;4980113;28;20317;-72
2021/03/01 03:54:27;;;;;;;20.50;8.27;;;;;;;-1.49;100.00;97609.00;4980106;28;20301;-72
2021/03/01 03:56:55;;;;;;;21.10;8.87;;;;;;;-1.55;100.00;97615.31;4983881;28;20200;-72
2021/03/01 03:59:24;;;;;;;18.00;8.47;;;;;;;-1.67;100.00;97615.00;4979878;28;20215;-72
2021/03/01 04:01:53;;;;;;;17.57;8.47;;;;;;;-1.72;100.00;97617.81;4980006;28;20301;-72
2021/03/01 04:04:22;;;;;;;20.10;8.07;;;;;;;-1.81;100.00;97615.66;4980516;28;20318;-72
2021/03/01 04:06:48;;;;;;;19.73;8.27;;;;;;;-1.86;100.00;97619.34;4980507;28;20207;-72
2021/03/01 04:09:15;;;;;;;19.37;8.67;;;;;;;-1.84;100.00;97617.53;4979711;28;20207;-72
2021/03/01 04:11:44;;;;;;;19.70;8.73;;;;;;;-1.78;100.00;97622.44;4979709;28;20223;-72
2021/03/01 04:14:15;;;;;;;19.00;8.63;;;;;;;-1.76;100.00;97618.03;4980344;28;20223;-72
2021/03/01 04:16:45;;;;;;;17.87;8.50;;;;;;;-1.78;100.00;97617.28;4984481;28;20334;-72
2021/03/01 04:19:15;;;;;;;15.07;8.03;;;;;;;-1.76;100.00;97623.19;4979724;28;20234;-72
2021/03/01 04:21:44;;;;;;;18.87;8.53;;;;;;;-1.77;100.00;97621.50;4980425;28;20219;-72
2021/03/01 04:24:12;;;;;;;21.50;8.63;;;;;;;-1.69;100.00;97632.34;4979672;28;20203;-72
2021/03/01 04:26:39;;;;;;;16.87;8.03;;;;;;;-1.69;100.00;97632.34;4978704;28;20206;-72
2021/03/01 04:29:05;;;;;;;18.53;8.30;;;;;;;-1.79;100.00;97631.09;4979799;28;20207;-72
2021/03/01 04:31:32;;;;;;;19.00;8.33;;;;;;;-1.85;100.00;97633.13;4979952;28;20567;-72
2021/03/01 04:33:59;;;;;;;23.03;9.23;;;;;;;-1.81;100.00;97631.16;4979481;28;20238;-72
2021/03/01 04:36:26;;;;;;;21.80;8.80;;;;;;;-1.90;100.00;97635.06;4978733;28;20277;-72
2021/03/01 04:38:53;;;;;;;18.73;8.63;;;;;;;-1.98;100.00;97639.75;4979033;28;20203;-72
2021/03/01 04:41:20;;;;;;;19.10;9.17;;;;;;;-1.90;100.00;97632.47;4979576;28;20214;-72
2021/03/01 04:43:48;;;;;;;18.50;8.23;;;;;;;-1.88;100.00;97628.91;4979190;28;20245;-71
2021/03/01 04:46:16;;;;;;;19.93;8.10;;;;;;;-1.95;100.00;97647.34;4978726;28;20218;-72
2021/03/01 04:48:43;;;;;;;22.30;9.30;;;;;;;-2.24;100.00;97642.59;4985399;28;20203;-72
2021/03/01 04:51:09;;;;;;;19.90;9.67;;;;;;;-2.20;100.00;97646.72;4979596;28;20215;-72
2021/03/01 04:53:37;;;;;;;19.93;9.03;;;;;;;-2.16;100.00;97648.28;4978854;28;20227;-72
2021/03/01 04:56:05;;;;;;;22.60;10.10;;;;;;;-2.15;100.00;97644.78;4978330;28;20218;-72
2021/03/01 04:58:32;;;;;;;22.33;9.87;;;;;;;-2.13;100.00;97640.41;4978971;28;20329;-72
2021/03/01 05:01:01;;;;;;;19.17;9.43;;;;;;;-2.13;100.00;97641.22;4979094;28;20214;-73
2021/03/01 05:03:29;;;;;;;21.93;10.10;;;;;;;-2.05;100.00;97648.66;4979199;28;20286;-72
2021/03/01 05:05:58;;;;;;;23.23;10.13;;;;;;;-1.99;100.00;97650.97;4978200;28;20195;-74
2021/03/01 05:08:25;;;;;;;29.67;10.47;;;;;;;-2.00;100.00;97647.53;4979148;28;21195;-72
2021/03/01 05:10:51;;;;;;;24.17;10.10;;;;;;;-1.95;100.00;97643.00;4978292;28;20225;-72
2021/03/01 05:13:18;;;;;;;24.53;10.93;;;;;;;-1.86;100.00;97632.25;4977679;28;20231;-72
2021/03/01 05:15:44;;;;;;;20.27;9.53;;;;;;;-1.97;100.00;97639.66;4979078;28;20230;-72
2021/03/01 05:18:11;;;;;;;25.47;9.53;;;;;;;-1.84;100.00;97642.53;4986676;28;20210;-72
2021/03/01 05:20:37;;;;;;;18.53;8.97;;;;;;;-1.78;100.00;97640.53;4977455;28;20206;-72
2021/03/01 05:23:03;;;;;;;23.87;8.70;;;;;;;-1.68;100.00;97634.88;4978260;28;20301;-72
2021/03/01 05:25:29;;;;;;;25.20;9.93;;;;;;;-1.53;100.00;97635.91;4977120;28;20214;-72
2021/03/01 05:27:55;;;;;;;24.37;9.63;;;;;;;-1.56;100.00;97638.63;4977485;28;20210;-72
2021/03/01 05:30:22;;;;;;;22.43;9.57;;;;;;;-1.62;100.00;97631.16;4979309;28;20571;-72
2021/03/01 05:32:48;;;;;;;19.73;8.83;;;;;;;-1.81;100.00;97638.91;4983501;28;20229;-72
2021/03/01 05:35:14;;;;;;;21.57;9.37;;;;;;;-1.80;100.00;97629.41;4979531;28;20221;-72
2021/03/01 05:37:40;;;;;;;20.47;8.97;;;;;;;-1.76;100.00;97625.78;4977615;28;20207;-72
2021/03/01 05:40:07;;;;;;;23.60;9.27;;;;;;;-1.95;100.00;97632.66;4977423;28;20905;-72
2021/03/01 05:42:36;;;;;;;22.37;9.37;;;;;;;-1.91;100.00;97631.63;4978782;28;20222;-72
2021/03/01 05:45:04;;;;;;;23.87;9.83;;;;;;;-2.00;100.00;97637.19;4976826;28;20199;-73
2021/03/01 05:47:31;;;;;;;22.20;9.50;;;;;;;-1.89;100.00;97637.56;4977711;28;20199;-72
2021/03/01 05:49:59;;;;;;;23.70;9.53;;;;;;;-1.86;100.00;97637.41;4977165;28;20206;-71
2021/03/01 05:52:27;;;;;;;21.70;8.73;;;;;;;-1.81;100.00;97635.47;4977564;28;20662;-72
2021/03/01 05:54:54;;;;;;;21.97;8.90;;;;;;;-1.77;100.00;97644.75;4979121;28;20213;-72
2021/03/01 05:57:22;;;;;;;19.13;9.47;;;;;;;-1.93;100.00;97648.94;4976608;28;20211;-72
2021/03/01 05:59:48;;;;;;;22.73;9.73;;;;;;;-1.88;100.00;97643.56;4976400;28;20257;-72
2021/03/01 06:02:17;;;;;;;19.80;9.07;;;;;;;-1.91;100.00;97641.94;4981647;28;20222;-72
2021/03/01 06:04:44;;;;;;;18.20;9.07;;;;;;;-1.96;100.00;97643.94;4980614;28;20222;-72
2021/03/01 06:07:10;;;;;;;18.97;9.10;;;;;;;-1.92;100.00;97645.47;4979710;28;20217;-72
2021/03/01 06:09:36;;;;;;;22.80;9.53;;;;;;;-1.84;100.00;97643.38;4968257;28;547731;-73
2021/03/01 06:12:02;;;;;;;25.13;9.93;;;;;;;-1.78;100.00;97643.09;4981366;28;20223;-72
2021/03/01 06:14:28;;;;;;;22.93;9.93;;;;;;;-1.78;100.00;97650.84;4978309;28;20238;-72
2021/03/01 06:17:15;;;;;;;22.10;9.90;;;;;;;-1.89;100.00;97652.25;4977358;28;20214;-72
2021/03/01 06:19:51;;;;;;;21.87;9.17;;;;;;;-1.89;100.00;97653.06;4978000;28;20688;-73
2021/03/01 06:22:18;;;;;;;24.30;9.90;;;;;;;-1.88;100.00;97662.50;4977955;28;20269;-73
2021/03/01 06:25:01;;;;;;;23.67;10.13;;;;;;;-1.81;100.00;97658.72;4978099;28;20254;-73
2021/03/01 06:27:27;;;;;;;29.47;10.63;;;;;;;-1.71;100.00;97660.00;4978793;28;20292;-73
2021/03/01 06:30:07;;;;;;;27.70;10.80;;;;;;;-1.58;100.00;97653.34;4978295;28;20211;-73
2021/03/01 06:32:34;;;;;;;28.50;10.60;;;;;;;-1.73;100.00;97667.00;4985158;28;20226;-73
2021/03/01 06:35:01;;;;;;;19.60;8.50;;;;;;;-1.61;100.00;97666.44;4977294;28;20210;-74
2021/03/01 06:37:27;;;;;;;24.33;9.67;;;;;;;-1.60;100.00;97668.13;4977860;28;20210;-73
2021/03/01 06:39:55;;;;;;;24.30;10.97;;;;;;;-1.47;100.00;97669.22;4978269;28;20602;-73
2021/03/01 06:42:26;;;;;;;23.67;9.93;;;;;;;-1.33;100.00;97667.66;4985374;28;20222;-72
2021/03/01 06:45:17;;;;;;;23.57;9.97;;;;;;;-1.18;100.00;97667.78;4977813;28;20196;-73
2021/03/01 06:47:49;;;;;;;23.87;10.73;;;;;;;-1.14;100.00;97674.50;4978592;28;20206;-72
2021/03/01 06:50:31;;;;;;;23.27;10.67;;;;;;;-1.13;100.00;97681.34;4977159;28;20207;-73
2021/03/01 06:52:59;;;;;;;23.00;10.00;;;;;;;-1.03;100.00;97679.16;4977558;28;20230;-73
2021/03/01 06:55:25;;;;;;;24.50;9.90;;;;;;;-0.98;100.00;97678.03;4985154;28;20210;-72
2021/03/01 06:57:51;;;;;;;22.67;10.83;;;;;;;-0.94;100.00;97686.47;4977833;28;20199;-73
2021/03/01 07:00:23;;;;;;;23.80;10.17;;;;;;;-0.86;100.00;97687.78;4977953;28;20877;-73
2021/03/01 07:02:49;;;;;;;23.83;10.67;;;;;;;-0.75;100.00;97680.38;4977960;28;20223;-72
2021/03/01 07:05:15;;;;;;;23.27;10.53;;;;;;;-0.74;100.00;97681.19;4979200;28;20985;-73
2021/03/01 07:07:42;;;;;;;24.57;10.90;;;;;;;-0.62;100.00;97678.84;4977472;28;20313;-72
2021/03/01 07:10:10;;;;;;;24.07;10.43;;;;;;;-0.55;100.00;97677.63;4980116;28;20226;-72
2021/03/01 07:12:38;;;;;;;27.43;10.87;;;;;;;-0.44;100.00;97677.94;4981257;28;20223;-73
2021/03/01 07:15:07;;;;;;;22.37;10.73;;;;;;;-0.33;100.00;97688.59;4980741;28;20203;-73
2021/03/01 07:17:34;;;;;;;26.27;10.97;;;;;;;-0.30;100.00;97685.88;4980361;28;20626;-73
2021/03/01 07:20:01;;;;;;;25.20;11.27;;;;;;;-0.21;100.00;97675.03;4981267;28;20206;-73
2021/03/01 07:22:29;;;;;;;23.90;10.87;;;;;;;-0.13;100.00;97683.25;4981292;28;20604;-73
2021/03/01 07:24:56;;;;;;;28.13;11.33;;;;;;;-0.04;100.00;97683.63;4980680;28;20205;-73
2021/03/01 07:27:26;;;;;;;28.83;11.57;;;;;;;0.04;100.00;97684.91;4991011;28;20693;-73
2021/03/01 07:29:57;;;;;;;22.87;10.80;;;;;;;0.11;100.00;97680.25;4983708;28;20209;-73
2021/03/01 07:32:27;;;;;;;30.00;11.33;;;;;;;0.27;100.00;97684.56;4982696;28;20329;-73
2021/03/01 07:34:53;;;;;;;24.43;11.20;;;;;;;0.42;100.00;97678.56;4985727;28;20208;-73
2021/03/01 07:37:20;;;;;;;24.13;10.53;;;;;;;0.54;100.00;97677.91;4980259;28;20640;-73
2021/03/01 07:39:46;;;;;;;24.67;10.57;;;;;;;0.66;100.00;97679.84;4980683;28;20249;-73
2021/03/01 07:42:15;;;;;;;25.87;11.20;;;;;;;0.77;100.00;97682.69;4980193;28;20764;-73
2021/03/01 07:44:42;;;;;;;29.17;12.50;;;;;;;0.89;100.00;97690.66;4980736;28;20211;-73
2021/03/01 07:47:08;;;;;;;23.37;10.57;;;;;;;0.92;100.00;97687.06;4979627;28;20201;-73
2021/03/01 07:49:41;;;;;;;23.33;10.70;;;;;;;1.01;100.00;97678.78;4980246;28;20202;-73
2021/03/01 07:52:08;;;;;;;26.83;11.13;;;;;;;1.18;100.00;97689.03;4980385;28;20288;-73
2021/03/01 07:54:51;;;;;;;22.17;10.97;;;;;;;1.24;100.00;97689.53;4980947;28;20300;-73
2021/03/01 07:57:19;;;;;;;25.07;10.60;;;;;;;1.38;100.00;97679.22;4979109;28;20218;-74
2021/03/01 07:59:45;;;;;;;26.13;11.60;;;;;;;1.48;100.00;97688.16;4980185;28;21171;-73
2021/03/01 08:02:28;;;;;;;26.57;11.13;;;;;;;1.57;100.00;97687.63;4980318;28;20230;-73
2021/03/01 08:04:57;;;;;;;31.43;11.30;;;;;;;1.58;100.00;97682.34;4979665;28;20214;-74
2021/03/01 08:07:37;;;;;;;29.23;11.57;;;;;;;1.75;100.00;97695.19;4979560;28;20204;-73
2021/03/01 08:10:04;;;;;;;25.60;10.70;;;;;;;1.85;100.00;97685.94;4979772;28;20289;-73
2021/03/01 08:13:00;;;;;;;24.33;10.77;;;;;;;1.98;100.00;97679.09;4979804;28;20229;-73
2021/03/01 08:15:29;;;;;;;27.97;11.20;;;;;;;2.05;100.00;97683.00;4979644;28;20217;-73
2021/03/01 08:17:56;;;;;;;24.07;10.63;;;;;;;2.18;100.00;97683.97;4987219;28;20210;-73
2021/03/01 08:20:53;;;;;;;25.93;10.90;;;;;;;2.25;100.00;97685.25;4978622;28;20289;-73
2021/03/01 08:23:33;;;;;;;25.70;10.63;;;;;;;2.48;100.00;97690.75;4980466;28;20234;-73
2021/03/01 08:26:02;;;;;;;23.70;10.90;;;;;;;2.52;100.00;97685.28;4978789;28;20278;-73
2021/03/01 08:28:51;;;;;;;23.13;11.00;;;;;;;2.68;100.00;97688.59;4979823;28;20434;-73
2021/03/01 08:31:25;;;;;;;25.57;11.10;;;;;;;2.79;100.00;97687.91;4979229;28;20678;-73
2021/03/01 08:33:52;;;;;;;23.67;10.87;;;;;;;2.78;100.00;97687.09;4984689;28;20819;-73
2021/03/01 08:36:25;;;;;;;27.87;11.20;;;;;;;2.87;100.00;97686.53;4978325;28;20203;-73
2021/03/01 08:38:53;;;;;;;20.90;10.73;;;;;;;2.87;100.00;97686.53;4979616;28;20646;-73
2021/03/01 08:41:40;;;;;;;26.33;10.70;;;;;;;3.01;100.00;97693.50;4979458;28;20211;-73
2021/03/01 08:44:20;;;;;;;22.57;10.43;;;;;;;3.18;100.00;97692.31;4979411;28;20199;-73
2021/03/01 08:46:48;;;;;;;26.30;11.07;;;;;;;3.26;100.00;97694.41;4978565;28;20218;-73
2021/03/01 08:49:23;;;;;;;21.20;9.80;;;;;;;3.36;100.00;97690.28;4981840;28;20265;-73
2021/03/01 08:51:49;;;;;;;24.27;11.47;;;;;;;3.43;100.00;97691.59;4978720;28;20264;-73
2021/03/01 08:54:25;;;;;;;24.43;11.23;;;;;;;3.54;100.00;97692.56;4979094;28;20223;-73
2021/03/01 08:57:01;;;;;;;19.80;10.43;;;;;;;3.49;100.00;97685.97;4985992;28;20199;-73
2021/03/01 08:59:28;;;;;;;23.20;10.60;;;;;;;3.52;100.00;97684.00;4979780;28;20225;-73
2021/03/01 09:01:54;;;;;;;27.50;11.43;;;;;;;3.54;100.00;97689.97;4978955;28;20274;-73
2021/03/01 09:04:20;;;;;;;25.57;10.60;;;;;;;3.56;100.00;97679.44;4979396;28;20211;-73
2021/03/01 09:06:46;;;;;;;21.80;10.43;;;;;;;3.70;100.00;97681.06;4978072;28;20550;-73
2021/03/01 09:09:12;;;;;;;28.23;11.77;;;;;;;3.87;100.00;97675.56;4978520;28;21126;-73
2021/03/01 09:11:38;;;;;;;21.37;10.80;;;;;;;3.89;99.76;97676.25;4977677;28;20726;-73
2021/03/01 09:14:05;;;;;;;19.30;9.90;;;;;;;3.83;99.50;97674.09;4978295;28;20238;-73
2021/03/01 09:16:34;;;;;;;29.23;11.90;;;;;;;3.99;100.00;97677.31;4978407;28;20199;-73
2021/03/01 09:19:02;;;;;;;29.27;11.50;;;;;;;4.05;99.74;97674.31;4983277;28;20269;-73
2021/03/01 09:21:29;;;;;;;22.03;10.37;;;;;;;4.08;98.05;97674.09;4977914;28;20457;-73
2021/03/01 09:23:56;;;;;;;23.00;10.93;;;;;;;4.16;100.00;97674.41;4978544;28;20206;-73
2021/03/01 09:26:25;;;;;;;25.37;11.73;;;;;;;4.34;99.44;97670.56;4977747;28;20211;-73
2021/03/01 09:28:53;;;;;;;22.10;10.50;;;;;;;4.35;98.90;97667.00;4978189;28;20231;-73
2021/03/01 09:31:19;;;;;;;23.90;11.00;;;;;;;4.45;99.66;97668.88;4981244;28;20234;-73
2021/03/01 09:33:46;;;;;;;21.63;11.13;;;;;;;4.56;98.08;97665.56;4980534;28;20227;-73
2021/03/01 09:36:13;;;;;;;22.33;11.20;;;;;;;4.72;95.79;97669.56;4984838;28;20211;-73
2021/03/01 09:38:40;;;;;;;22.73;11.07;;;;;;;4.88;93.87;97670.19;4981094;28;20211;-73
2021/03/01 09:41:08;;;;;;;24.30;10.70;;;;;;;5.12;94.52;97673.69;4981107;28;20678;-73
2021/03/01 09:43:35;;;;;;;22.63;10.63;;;;;;;5.22;91.19;97674.69;4983118;28;20223;-73
2021/03/01 09:46:02;;;;;;;29.13;11.17;;;;;;;5.20;91.38;97672.19;4980466;28;20572;-73
2021/03/01 09:48:30;;;;;;;18.60;9.90;;;;;;;5.37;90.74;97666.56;4986084;28;20236;-73
2021/03/01 09:50:57;;;;;;;20.23;10.30;;;;;;;5.53;89.18;97667.94;4977425;28;20203;-73
2021/03/01 09:53:26;;;;;;;20.13;9.73;;;;;;;5.60;86.98;97663.97;4988384;28;20230;-73
2021/03/01 09:55:53;;;;;;;21.43;9.70;;;;;;;5.95;89.01;97661.38;4977570;28;20204;-73
2021/03/01 09:58:24;;;;;;;21.43;9.73;;;;;;;6.14;84.99;97654.66;4977632;28;20211;-73
2021/03/01 10:00:51;;;;;;;19.97;10.30;;;;;;;6.20;86.51;97660.25;4978265;28;20392;-73
2021/03/01 10:03:17;;;;;;;22.47;11.00;;;;;;;6.28;84.16;97651.81;4978061;28;20223;-73
2021/03/01 10:05:48;;;;;;;22.47;10.17;;;;;;;6.24;83.53;97651.22;4977189;28;20203;-73
2021/03/01 10:08:24;;;;;;;22.00;10.80;;;;;;;6.28;84.41;97654.44;4978143;28;20218;-73
2021/03/01 10:10:50;;;;;;;21.87;10.53;;;;;;;6.35;84.42;97650.41;4978160;28;20209;-73
2021/03/01 10:13:25;;;;;;;20.03;10.53;;;;;;;6.45;82.98;97651.34;4983051;28;20325;-73
2021/03/01 10:15:51;;;;;;;19.20;10.27;;;;;;;6.39;84.74;97644.81;4976754;28;20199;-73
2021/03/01 10:18:19;;;;;;;20.27;10.30;;;;;;;6.70;85.11;97646.72;4977328;28;20242;-73
2021/03/01 10:20:47;;;;;;;22.90;10.13;;;;;;;6.92;81.33;97647.53;4982981;28;20207;-73
2021/03/01 10:23:13;;;;;;;20.40;9.73;;;;;;;6.97;79.40;97634.09;4982187;28;20226;-73
2021/03/01 10:25:42;;;;;;;19.63;10.03;;;;;;;6.91;81.57;97639.78;4977104;28;20639;-73
2021/03/01 10:28:30;;;;;;;19.87;9.77;;;;;;;7.05;81.77;97632.53;4977464;28;20695;-73
2021/03/01 10:31:01;;;;;;;20.03;10.10;;;;;;;7.18;77.91;97632.38;4983179;28;20206;-73
2021/03/01 10:33:27;;;;;;;19.67;9.73;;;;;;;7.28;76.22;97639.41;4978655;28;20416;-73
2021/03/01 10:36:07;;;;;;;21.13;10.50;;;;;;;7.50;75.80;97629.66;4977238;28;21046;-74
2021/03/01 10:38:51;;;;;;;21.03;9.57;;;;;;;7.51;78.19;97625.22;4978063;28;20214;-73
2021/03/01 10:41:18;;;;;;;19.37;9.83;;;;;;;7.56;76.64;97625.69;4980846;28;20276;-73
2021/03/01 10:44:01;;;;;;;14.40;8.23;;;;;;;7.80;72.40;97621.88;4978156;28;20562;-73
2021/03/01 10:46:30;;;;;;;18.40;7.53;;;;;;;7.98;67.53;97625.59;4987236;28;20229;-73
2021/03/01 10:48:57;;;;;;;13.93;7.60;;;;;;;8.23;70.29;97620.00;4979452;28;20207;-73
2021/03/01 10:51:22;;;;;;;15.13;8.03;;;;;;;8.44;67.55;97620.81;4990373;28;20210;-73
2021/03/01 10:53:48;;;;;;;15.20;7.70;;;;;;;8.71;68.43;97617.47;4980627;28;20737;-73
2021/03/01 10:56:14;;;;;;;13.17;6.73;;;;;;;8.94;62.65;97616.31;4981152;28;20254;-73
2021/03/01 10:58:40;;;;;;;12.40;6.97;;;;;;;8.79;66.58;97619.47;4988855;28;20203;-73
2021/03/01 11:01:06;;;;;;;15.73;7.87;;;;;;;8.94;67.57;97613.69;4980841;28;20262;-74
2021/03/01 11:03:33;;;;;;;14.07;6.57;;;;;;;8.74;63.24;97609.31;4981466;28;20219;-73
2021/03/01 11:05:59;;;;;;;12.43;7.23;;;;;;;8.85;63.55;97613.69;4980529;28;20671;-73
2021/03/01 11:08:25;;;;;;;16.57;7.43;;;;;;;8.97;63.58;97607.34;4980600;28;20265;-73
2021/03/01 11:10:52;;;;;;;12.43;6.77;;;;;;;9.41;59.81;97595.38;4980986;28;20203;-73
2021/03/01 11:13:18;;;;;;;11.73;6.00;;;;;;;9.52;58.57;97604.94;4981643;28;20231;-74
2021/03/01 11:15:44;;;;;;;10.27;5.67;;;;;;;9.58;60.18;97599.13;4990691;28;20203;-74
2021/03/01 11:18:10;;;;;;;14.23;7.30;;;;;;;9.62;60.83;97597.88;4982303;28;20993;-74
2021/03/01 11:20:37;;;;;;;12.73;6.07;;;;;;;9.75;58.42;97583.50;4981006;28;21203;-74
2021/03/01 11:23:06;;;;;;;12.43;6.03;;;;;;;9.58;58.54;97584.16;4981036;28;20282;-74
2021/03/01 11:25:34;;;;;;;9.93;6.13;;;;;;;9.71;57.94;97582.94;4987362;28;20326;-74